createdAt,value
2022-08-19T00:01:40.755Z,5.80
2022-08-19T00:04:10.551Z,5.10
2022-08-19T00:06:40.170Z,5.30
2022-08-19T00:09:09.982Z,5.82
2022-08-19T00:11:40.402Z,5.65
2022-08-19T00:14:10.596Z,6.22
2022-08-19T00:16:39.906Z,5.95
2022-08-19T00:19:07.898Z,6.57
2022-08-19T00:21:39.401Z,6.85
2022-08-19T00:24:09.001Z,23.73
2022-08-19T00:26:37.304Z,24.92
2022-08-19T00:29:08.393Z,28.38
2022-08-19T00:31:36.878Z,30.63
2022-08-19T00:34:05.124Z,31.20
2022-08-19T00:36:33.535Z,36.45
2022-08-19T00:39:01.911Z,33.65
2022-08-19T00:41:30.763Z,25.23
2022-08-19T00:44:01.736Z,26.85
2022-08-19T00:46:31.662Z,23.90
2022-08-19T00:48:59.770Z,26.48
2022-08-19T00:51:29.530Z,27.67
2022-08-19T00:53:59.520Z,30.08
2022-08-19T00:56:28.566Z,30.23
2022-08-19T00:58:58.588Z,32.83
2022-08-19T01:01:26.995Z,36.13
2022-08-19T01:03:58.058Z,35.50
2022-08-19T01:06:27.359Z,40.25
2022-08-19T01:08:56.332Z,40.60
2022-08-19T01:11:24.459Z,40.72
2022-08-19T01:13:54.137Z,37.58
2022-08-19T01:16:26.157Z,34.25
2022-08-19T01:18:54.040Z,35.55
2022-08-19T01:21:28.678Z,31.38
2022-08-19T01:23:57.914Z,26.80
2022-08-19T01:26:27.605Z,24.67
2022-08-19T01:28:59.688Z,24.08
2022-08-19T01:31:32.479Z,23.55
2022-08-19T01:34:02.741Z,24.85
2022-08-19T01:36:33.099Z,25.85
2022-08-19T01:39:05.100Z,25.63
2022-08-19T01:41:32.910Z,27.33
2022-08-19T01:44:10.057Z,27.10
2022-08-19T01:46:46.197Z,27.88
2022-08-19T01:49:14.177Z,28.13
2022-08-19T01:51:41.950Z,26.13
2022-08-19T01:54:12.346Z,28.38
2022-08-19T01:56:41.554Z,29.00
2022-08-19T01:59:13.967Z,27.13
2022-08-19T02:01:42.422Z,25.23
2022-08-19T02:04:10.629Z,25.58
2022-08-19T02:06:39.279Z,24.83
2022-08-19T02:09:08.910Z,22.05
2022-08-19T02:11:39.140Z,24.17
2022-08-19T02:14:09.347Z,22.27
2022-08-19T02:16:39.327Z,25.10
2022-08-19T02:19:07.306Z,24.60
2022-08-19T02:21:35.302Z,25.40
2022-08-19T02:24:03.445Z,25.67
2022-08-19T02:26:31.404Z,23.98
2022-08-19T02:29:01.223Z,24.40
2022-08-19T02:31:30.151Z,25.95
2022-08-19T02:33:58.683Z,25.00
2022-08-19T02:36:28.517Z,23.95
2022-08-19T02:38:55.985Z,26.98
2022-08-19T02:41:27.185Z,23.13
2022-08-19T02:44:29.967Z,26.23
2022-08-19T02:46:47.193Z,25.90
2022-08-19T02:49:17.663Z,24.42
2022-08-19T02:51:47.370Z,24.52
2022-08-19T02:54:16.586Z,24.17
2022-08-19T02:56:46.102Z,24.42
2022-08-19T02:59:13.911Z,23.20
2022-08-19T03:01:44.630Z,23.83
2022-08-19T03:04:14.458Z,24.38
2022-08-19T03:06:44.059Z,23.73
2022-08-19T03:09:12.528Z,24.67
2022-08-19T03:11:40.933Z,24.08
2022-08-19T03:14:11.305Z,23.40
2022-08-19T03:16:45.728Z,23.58
2022-08-19T03:19:13.755Z,20.15
2022-08-19T03:21:41.781Z,21.08
2022-08-19T03:24:11.101Z,20.83
2022-08-19T03:26:41.683Z,22.92
2022-08-19T03:29:12.005Z,22.55
2022-08-19T03:31:52.558Z,21.48
2022-08-19T03:34:27.026Z,22.40
2022-08-19T03:36:56.272Z,22.10
2022-08-19T03:39:25.275Z,20.73
2022-08-19T03:42:33.167Z,21.83
2022-08-19T03:44:46.635Z,20.25
2022-08-19T03:47:17.269Z,21.40
2022-08-19T03:49:47.311Z,21.00
2022-08-19T03:52:15.324Z,19.88
2022-08-19T03:54:43.566Z,21.15
2022-08-19T03:57:11.375Z,21.75
2022-08-19T03:59:39.754Z,20.05
2022-08-19T04:02:10.894Z,21.73
2022-08-19T04:04:39.517Z,21.63
2022-08-19T04:07:09.596Z,19.67
2022-08-19T04:09:37.908Z,21.80
2022-08-19T04:12:07.574Z,21.17
2022-08-19T04:14:36.721Z,22.05
2022-08-19T04:17:06.713Z,20.10
2022-08-19T04:19:36.202Z,21.65
2022-08-19T04:22:05.540Z,21.73
2022-08-19T04:24:35.722Z,21.52
2022-08-19T04:27:03.807Z,21.75
2022-08-19T04:29:31.980Z,21.50
2022-08-19T04:32:09.344Z,22.02
2022-08-19T04:35:01.550Z,21.25
2022-08-19T04:37:29.532Z,21.05
2022-08-19T04:40:24.093Z,21.90
2022-08-19T04:42:52.094Z,21.25
2022-08-19T04:45:20.043Z,21.70
2022-08-19T04:47:58.292Z,21.88
2022-08-19T04:50:27.555Z,21.70
2022-08-19T04:52:57.422Z,21.17
2022-08-19T04:55:27.488Z,21.55
2022-08-19T04:57:55.496Z,22.90
2022-08-19T05:00:23.874Z,24.23
2022-08-19T05:02:51.770Z,21.92
2022-08-19T05:05:20.780Z,21.70
2022-08-19T05:07:48.950Z,23.92
2022-08-19T05:10:16.812Z,23.02
2022-08-19T05:12:46.209Z,22.42
2022-08-19T05:15:14.198Z,21.58
2022-08-19T05:18:03.439Z,20.90
2022-08-19T05:20:48.653Z,21.88
2022-08-19T05:23:21.970Z,20.63
2022-08-19T05:25:51.343Z,20.98
2022-08-19T05:28:21.517Z,20.75
2022-08-19T05:30:51.694Z,21.52
2022-08-19T05:33:19.555Z,19.88
2022-08-19T05:35:49.549Z,20.02
2022-08-19T05:38:18.249Z,21.50
2022-08-19T05:40:47.607Z,19.98
2022-08-19T05:43:16.814Z,19.13
2022-08-19T05:45:46.529Z,21.20
2022-08-19T05:48:15.056Z,18.63
2022-08-19T05:50:46.443Z,17.92
2022-08-19T05:53:17.344Z,17.55
2022-08-19T05:55:45.247Z,17.52
2022-08-19T05:58:13.357Z,17.25
2022-08-19T06:00:41.957Z,17.13
2022-08-19T06:03:12.728Z,15.90
2022-08-19T06:05:51.811Z,15.35
2022-08-19T06:08:33.920Z,14.82
2022-08-19T06:11:22.831Z,13.38
2022-08-19T06:13:59.718Z,13.23
2022-08-19T06:16:36.771Z,12.32
2022-08-19T06:19:11.819Z,10.40
2022-08-19T06:21:45.444Z,11.27
2022-08-19T06:24:18.117Z,10.63
2022-08-19T06:26:59.217Z,9.82
2022-08-19T06:29:34.764Z,9.60
2022-08-19T06:32:09.008Z,10.10
2022-08-19T06:34:43.955Z,9.57
2022-08-19T06:37:14.407Z,8.73
2022-08-19T06:39:44.789Z,9.85
2022-08-19T06:42:17.848Z,9.00
2022-08-19T06:44:49.091Z,7.32
2022-08-19T06:47:25.162Z,8.70
2022-08-19T06:50:03.421Z,7.75
2022-08-19T06:52:34.385Z,7.53
2022-08-19T06:55:06.314Z,6.65
2022-08-19T06:57:35.464Z,6.43
2022-08-19T07:00:03.779Z,8.07
2022-08-19T07:02:33.831Z,7.43
2022-08-19T07:05:08.441Z,6.95
2022-08-19T07:07:45.159Z,7.97
2022-08-19T07:10:23.763Z,8.10
2022-08-19T07:12:59.951Z,8.57
2022-08-19T07:15:35.969Z,8.95
2022-08-19T07:29:24.108Z,7.55
2022-08-19T07:31:57.202Z,7.53
2022-08-19T07:34:26.244Z,8.20
2022-08-19T07:36:54.969Z,8.18
2022-08-19T07:39:24.945Z,7.90
2022-08-19T07:41:53.436Z,7.13
2022-08-19T07:44:22.820Z,7.20
2022-08-19T07:46:53.369Z,7.63
2022-08-19T07:49:22.875Z,7.50
2022-08-19T07:51:53.260Z,6.80
2022-08-19T07:54:22.767Z,6.88
2022-08-19T07:56:52.516Z,6.20
2022-08-19T07:59:22.554Z,5.78
2022-08-19T08:01:51.166Z,6.07
2022-08-19T08:04:36.920Z,6.55
2022-08-19T08:07:22.363Z,5.43
2022-08-19T08:09:51.778Z,5.90
2022-08-19T08:12:34.187Z,5.95
2022-08-19T08:15:12.547Z,6.57
2022-08-19T08:17:49.176Z,5.20
2022-08-19T08:20:20.373Z,5.57
2022-08-19T08:23:06.688Z,5.43
2022-08-19T08:25:36.367Z,4.60
2022-08-19T08:28:05.408Z,5.05
2022-08-19T08:30:36.826Z,4.93
2022-08-19T08:33:05.491Z,4.88
2022-08-19T08:35:34.433Z,4.85
2022-08-19T08:38:03.578Z,4.32
2022-08-19T08:40:37.193Z,3.85
2022-08-19T08:43:12.948Z,5.18
2022-08-19T08:45:53.768Z,4.63
2022-08-19T08:48:26.254Z,3.92
2022-08-19T08:50:56.892Z,3.75
2022-08-19T08:53:29.168Z,3.92
2022-08-19T08:55:57.803Z,4.38
2022-08-19T08:58:31.883Z,3.53
2022-08-19T09:01:01.056Z,3.70
2022-08-19T09:03:31.611Z,4.00
2022-08-19T09:06:03.692Z,4.05
2022-08-19T09:08:47.476Z,4.55
2022-08-19T09:11:42.675Z,4.03
2022-08-19T09:14:40.661Z,3.75
2022-08-19T09:17:08.848Z,4.10
2022-08-19T09:19:37.618Z,4.30
2022-08-19T09:22:06.230Z,3.97
2022-08-19T09:24:34.194Z,4.10
2022-08-19T09:27:07.952Z,4.07
2022-08-19T09:29:47.026Z,4.90
2022-08-19T09:32:26.421Z,3.97
2022-08-19T09:34:55.882Z,4.78
2022-08-19T09:37:24.134Z,4.38
2022-08-19T09:39:53.724Z,4.30
2022-08-19T09:42:30.328Z,4.93
2022-08-19T09:44:59.629Z,4.07
2022-08-19T09:47:29.737Z,3.97
2022-08-19T09:49:59.685Z,4.65
2022-08-19T09:52:32.615Z,5.55
2022-08-19T09:55:01.682Z,4.80
2022-08-19T09:57:35.354Z,4.07
2022-08-19T10:00:03.837Z,4.20
2022-08-19T10:02:33.149Z,4.38
2022-08-19T10:05:26.601Z,4.43
2022-08-19T10:07:56.867Z,4.05
2022-08-19T10:10:25.367Z,3.90
2022-08-19T10:12:56.117Z,3.40
2022-08-19T10:15:28.975Z,3.42
2022-08-19T10:18:00.502Z,4.05
2022-08-19T10:20:31.468Z,3.65
2022-08-19T10:23:03.150Z,4.35
2022-08-19T10:25:36.721Z,4.25
2022-08-19T10:28:10.578Z,3.75
2022-08-19T10:30:39.022Z,4.25
2022-08-19T10:33:11.328Z,4.75
2022-08-19T10:35:42.565Z,5.47
2022-08-19T10:40:59.979Z,5.57
2022-08-19T10:43:27.860Z,5.45
2022-08-19T10:45:58.298Z,5.63
2022-08-19T10:48:31.628Z,5.45
2022-08-19T10:51:22.757Z,5.05
2022-08-19T10:53:51.704Z,5.97
2022-08-19T10:56:38.398Z,5.60
2022-08-19T10:59:06.958Z,5.45
2022-08-19T11:01:36.253Z,5.68
2022-08-19T11:04:10.121Z,6.38
2022-08-19T11:06:39.382Z,6.93
2022-08-19T11:09:07.688Z,7.20
2022-08-19T11:11:41.737Z,6.40
2022-08-19T11:14:10.396Z,6.72
2022-08-19T11:16:40.102Z,6.93
2022-08-19T11:19:10.934Z,7.82
2022-08-19T11:21:41.397Z,7.40
2022-08-19T11:24:11.841Z,7.22
2022-08-19T11:26:41.177Z,6.88
2022-08-19T11:29:13.669Z,9.18
2022-08-19T11:31:43.317Z,7.47
2022-08-19T11:34:15.750Z,7.65
2022-08-19T11:36:46.034Z,7.13
2022-08-19T11:39:16.281Z,8.20
2022-08-19T11:41:44.166Z,8.00
2022-08-19T11:44:14.961Z,7.88
2022-08-19T11:46:46.441Z,7.28
2022-08-19T11:49:16.425Z,7.25
2022-08-19T11:51:44.862Z,6.97
2022-08-19T11:54:14.422Z,6.47
2022-08-19T11:56:43.218Z,6.15
2022-08-19T11:59:14.807Z,6.75
2022-08-19T12:01:43.697Z,6.07
2022-08-19T12:04:13.184Z,6.35
2022-08-19T12:06:43.071Z,5.70
2022-08-19T12:09:12.303Z,6.18
2022-08-19T12:11:41.483Z,5.68
2022-08-19T12:14:14.467Z,5.38
2022-08-19T12:16:48.621Z,5.85
2022-08-19T12:19:22.297Z,4.80
2022-08-19T12:21:54.235Z,4.72
2022-08-19T12:24:24.323Z,4.72
2022-08-19T12:26:53.982Z,4.28
2022-08-19T12:29:23.848Z,4.72
2022-08-19T12:31:52.188Z,3.28
2022-08-19T12:34:21.001Z,2.97
2022-08-19T12:36:50.330Z,2.83
2022-08-19T12:39:19.765Z,3.65
2022-08-19T12:41:51.283Z,34.60
2022-08-19T12:44:29.413Z,10.75
2022-08-19T12:47:00.914Z,6.47
2022-08-19T12:49:53.434Z,14.07
2022-08-19T12:52:22.887Z,3.38
2022-08-19T12:54:54.498Z,2.60
2022-08-19T12:57:32.137Z,2.28
2022-08-19T13:00:09.536Z,3.25
2022-08-19T13:02:38.450Z,1.80
2022-08-19T13:05:09.279Z,2.28
2022-08-19T13:07:38.469Z,4.45
2022-08-19T13:10:09.264Z,2.65
2022-08-19T13:12:37.648Z,1.83
2022-08-19T13:15:10.864Z,2.03
2022-08-19T13:17:39.661Z,1.88
2022-08-19T13:20:09.991Z,1.20
2022-08-19T13:22:38.107Z,1.35
2022-08-19T13:25:11.989Z,1.30
2022-08-19T13:27:41.125Z,1.50
2022-08-19T13:30:29.707Z,1.30
2022-08-19T13:33:13.018Z,1.10
2022-08-19T13:35:47.559Z,1.27
2022-08-19T13:38:16.514Z,1.27
2022-08-19T13:40:46.069Z,1.90
2022-08-19T13:43:22.754Z,1.02
2022-08-19T13:45:53.590Z,1.00
2022-08-19T13:48:21.896Z,1.02
2022-08-19T13:50:50.143Z,1.08
2022-08-19T13:53:19.047Z,1.15
2022-08-19T13:55:48.568Z,0.80
2022-08-19T13:58:17.986Z,1.40
2022-08-19T14:00:50.889Z,1.30
2022-08-19T14:03:18.757Z,1.17
2022-08-19T14:05:46.975Z,0.90
2022-08-19T14:08:15.181Z,1.20
2022-08-19T14:10:45.109Z,0.80
2022-08-19T14:13:17.543Z,1.00
2022-08-19T14:15:46.196Z,1.10
2022-08-19T14:18:14.018Z,0.90
2022-08-19T14:20:42.767Z,1.30
2022-08-19T14:23:10.598Z,0.75
2022-08-19T14:25:38.651Z,1.20
2022-08-19T14:28:07.908Z,1.33
2022-08-19T14:30:39.164Z,1.30
2022-08-19T14:33:09.574Z,2.22
2022-08-19T14:35:37.696Z,1.20
2022-08-19T14:38:09.160Z,0.70
2022-08-19T14:40:38.446Z,0.88
2022-08-19T14:43:12.683Z,0.93
2022-08-19T14:45:48.587Z,0.52
2022-08-19T14:48:19.459Z,0.60
2022-08-19T14:50:49.134Z,0.68
2022-08-19T14:53:19.647Z,0.60
2022-08-19T14:55:50.991Z,0.70
2022-08-19T14:58:28.846Z,0.50
2022-08-19T15:01:01.148Z,0.80
2022-08-19T15:03:29.457Z,0.80
2022-08-19T15:05:58.905Z,0.90
2022-08-19T15:08:34.923Z,0.70
2022-08-19T15:11:06.773Z,0.80
2022-08-19T15:13:39.700Z,0.50
2022-08-19T15:16:18.172Z,0.70
2022-08-19T15:18:48.636Z,0.70
2022-08-19T15:21:26.510Z,0.70
2022-08-19T15:23:59.666Z,0.95
2022-08-19T15:26:34.101Z,0.90
2022-08-19T15:29:04.417Z,0.80
2022-08-19T15:31:38.249Z,0.52
2022-08-19T15:34:08.290Z,0.70
2022-08-19T15:36:37.077Z,0.98
2022-08-19T15:39:06.518Z,1.05
2022-08-19T15:41:36.970Z,0.80
2022-08-19T15:44:09.012Z,1.10
2022-08-19T15:46:40.233Z,0.68
2022-08-19T15:49:09.783Z,0.82
2022-08-19T15:51:40.772Z,0.82
2022-08-19T15:54:13.334Z,1.00
2022-08-19T15:57:07.693Z,1.17
2022-08-19T15:59:56.073Z,1.00
2022-08-19T16:02:47.816Z,0.77
2022-08-19T16:05:38.590Z,0.70
2022-08-19T16:08:10.791Z,0.82
2022-08-19T16:10:39.918Z,0.50
2022-08-19T16:13:08.460Z,0.80
2022-08-19T16:15:43.161Z,0.90
2022-08-19T16:18:12.849Z,1.02
2022-08-19T16:20:41.038Z,0.70
2022-08-19T16:23:12.167Z,0.95
2022-08-19T16:25:40.006Z,1.00
2022-08-19T16:28:10.276Z,0.88
2022-08-19T16:30:41.193Z,0.95
2022-08-19T16:33:10.215Z,0.70
2022-08-19T16:35:39.506Z,0.95
2022-08-19T16:38:08.638Z,0.93
2022-08-19T16:40:37.242Z,1.05
2022-08-19T16:43:05.265Z,1.23
2022-08-19T16:45:33.148Z,2.10
2022-08-19T16:48:00.998Z,2.20
2022-08-19T16:50:48.133Z,2.50
2022-08-19T16:53:21.466Z,1.70
2022-08-19T16:55:50.754Z,2.30
2022-08-19T16:58:19.342Z,2.42
2022-08-19T17:00:48.602Z,2.50
2022-08-19T17:03:17.437Z,2.33
2022-08-19T17:05:47.372Z,2.45
2022-08-19T17:08:16.861Z,2.10
2022-08-19T17:11:16.514Z,1.50
2022-08-19T17:13:38.374Z,2.25
2022-08-19T17:16:11.012Z,2.20
2022-08-19T17:18:42.411Z,2.25
2022-08-19T17:21:14.387Z,2.00
2022-08-19T17:23:44.926Z,1.63
2022-08-19T17:26:19.367Z,1.95
2022-08-19T17:28:50.039Z,1.48
2022-08-19T17:31:25.184Z,2.00
2022-08-19T17:33:54.980Z,2.63
2022-08-19T17:36:26.178Z,4.10
2022-08-19T17:38:56.137Z,4.65
2022-08-19T17:41:27.254Z,3.88
2022-08-19T17:43:55.307Z,5.43
2022-08-19T17:46:25.536Z,6.20
2022-08-19T17:48:58.569Z,5.20
2022-08-19T17:51:41.993Z,4.40
2022-08-19T17:54:12.296Z,2.95
2022-08-19T17:56:41.758Z,2.65
2022-08-19T17:59:14.103Z,2.65
2022-08-19T18:01:53.387Z,2.85
2022-08-19T18:04:24.001Z,2.70
2022-08-19T18:06:54.348Z,2.75
2022-08-19T18:09:25.030Z,2.92
2022-08-19T18:11:57.273Z,2.50
2022-08-19T18:14:32.805Z,2.35
2022-08-19T18:17:02.076Z,2.80
2022-08-19T18:19:41.400Z,2.10
2022-08-19T18:22:12.936Z,2.13
2022-08-19T18:24:41.603Z,2.70
2022-08-19T18:27:10.947Z,2.08
2022-08-19T18:29:40.425Z,1.92
2022-08-19T18:32:13.285Z,2.05
2022-08-19T18:34:42.059Z,2.17
2022-08-19T18:37:09.922Z,2.28
2022-08-19T18:39:55.168Z,1.80
2022-08-19T18:42:42.183Z,2.15
2022-08-19T18:45:29.274Z,2.25
2022-08-19T18:48:25.820Z,1.58
2022-08-19T18:50:56.895Z,1.80
2022-08-19T18:53:25.334Z,1.65
2022-08-19T18:55:55.398Z,1.77
2022-08-19T18:58:26.593Z,1.38
2022-08-19T19:00:56.818Z,1.50
2022-08-19T19:03:25.759Z,1.63
2022-08-19T19:05:54.846Z,1.55
2022-08-19T19:08:26.748Z,1.85
2022-08-19T19:10:55.977Z,1.60
2022-08-19T19:13:25.256Z,1.75
2022-08-19T19:15:54.432Z,2.17
2022-08-19T19:18:22.469Z,2.25
2022-08-19T19:20:50.231Z,2.67
2022-08-19T19:23:18.015Z,4.30
2022-08-19T19:25:50.899Z,4.95
2022-08-19T19:28:27.703Z,3.80
2022-08-19T19:30:59.076Z,2.60
2022-08-19T19:33:27.951Z,2.15
2022-08-19T19:35:56.234Z,1.63
2022-08-19T19:38:24.494Z,2.40
2022-08-19T19:40:52.417Z,2.17
2022-08-19T19:43:20.470Z,2.20
2022-08-19T19:45:49.883Z,1.70
2022-08-19T19:48:18.990Z,2.10
2022-08-19T19:50:48.867Z,2.00
2022-08-19T19:53:24.106Z,1.50
2022-08-19T19:55:54.933Z,1.80
2022-08-19T19:58:28.786Z,1.45
2022-08-19T20:00:57.067Z,1.50
2022-08-19T20:03:26.414Z,1.75
2022-08-19T20:05:54.908Z,1.65
2022-08-19T20:08:40.424Z,1.80
2022-08-19T20:11:08.854Z,1.73
2022-08-19T20:13:40.550Z,1.70
2022-08-19T20:16:08.738Z,1.70
2022-08-19T20:18:38.888Z,1.75
2022-08-19T20:21:07.178Z,1.50
2022-08-19T20:23:35.443Z,1.23
2022-08-19T20:26:06.467Z,1.10
2022-08-19T20:28:47.900Z,1.55
2022-08-19T20:31:26.361Z,1.42
2022-08-19T20:33:59.433Z,1.50
2022-08-19T20:36:27.524Z,1.63
2022-08-19T20:38:55.290Z,1.67
2022-08-19T20:41:23.819Z,1.50
2022-08-19T20:43:51.746Z,1.70
2022-08-19T20:46:19.905Z,1.35
2022-08-19T20:48:47.695Z,1.70
2022-08-19T20:51:17.182Z,1.30
2022-08-19T20:53:45.026Z,1.85
2022-08-19T20:56:13.051Z,1.38
2022-08-19T20:58:42.176Z,1.67
2022-08-19T21:01:10.926Z,1.30
2022-08-19T21:03:43.243Z,1.48
2022-08-19T21:06:12.697Z,1.92
2022-08-19T21:08:43.223Z,2.20
2022-08-19T21:11:13.775Z,1.65
2022-08-19T21:16:16.520Z,1.52
2022-08-19T21:18:44.354Z,1.65
2022-08-19T21:21:12.103Z,1.55
2022-08-19T21:23:40.162Z,1.65
2022-08-19T21:26:09.618Z,1.48
2022-08-19T21:28:37.349Z,1.65
2022-08-19T21:31:07.332Z,1.63
2022-08-19T21:33:35.652Z,1.55
2022-08-19T21:36:04.672Z,1.75
2022-08-19T21:38:33.029Z,2.00
2022-08-19T21:41:04.180Z,1.90
2022-08-19T21:43:36.132Z,1.67
2022-08-19T21:46:04.461Z,1.77
2022-08-19T21:48:32.853Z,1.88
2022-08-19T21:51:00.928Z,2.17
2022-08-19T21:53:34.046Z,2.05
2022-08-19T21:56:03.083Z,2.15
2022-08-19T21:58:31.086Z,2.15
2022-08-19T22:01:01.520Z,2.15
2022-08-19T22:03:30.214Z,1.67
2022-08-19T22:05:58.603Z,2.17
2022-08-19T22:08:27.203Z,2.47
2022-08-19T22:10:55.992Z,2.50
2022-08-19T22:13:24.894Z,2.60
2022-08-19T22:15:55.034Z,2.67
2022-08-19T22:18:24.475Z,2.40
2022-08-19T22:20:52.274Z,2.78
2022-08-19T22:23:20.441Z,3.17
2022-08-19T22:25:48.516Z,2.83
2022-08-19T22:28:27.913Z,3.15
2022-08-19T22:30:56.588Z,2.72
2022-08-19T22:33:27.702Z,2.80
2022-08-19T22:35:55.722Z,3.03
2022-08-19T22:38:25.255Z,3.22
2022-08-19T22:40:56.456Z,3.05
2022-08-19T22:43:27.282Z,3.20
2022-08-19T22:45:57.188Z,3.08
2022-08-19T22:48:29.959Z,3.58
2022-08-19T22:51:15.813Z,3.28
2022-08-19T22:53:45.863Z,3.58
2022-08-19T22:56:15.594Z,3.17
2022-08-19T22:58:43.667Z,3.83
2022-08-19T23:01:13.016Z,3.72
2022-08-19T23:03:52.281Z,3.05
2022-08-19T23:06:20.338Z,3.25
2022-08-19T23:08:48.126Z,3.50
2022-08-19T23:11:16.290Z,3.85
2022-08-19T23:13:44.407Z,4.18
2022-08-19T23:16:12.165Z,4.18
2022-08-19T23:18:40.713Z,3.70
2022-08-19T23:21:09.863Z,3.47
2022-08-19T23:23:39.379Z,4.13
2022-08-19T23:26:11.714Z,3.58
2022-08-19T23:28:57.413Z,4.18
2022-08-19T23:31:27.056Z,3.72
2022-08-19T23:33:54.811Z,4.20
2022-08-19T23:36:25.054Z,4.43
2022-08-19T23:38:53.021Z,4.10
2022-08-19T23:41:23.859Z,4.25
2022-08-19T23:43:54.977Z,4.25
2022-08-19T23:46:28.408Z,4.32
2022-08-19T23:48:56.665Z,4.45
2022-08-19T23:51:26.741Z,4.55
2022-08-19T23:53:54.613Z,4.20
2022-08-19T23:56:22.509Z,4.72
2022-08-19T23:58:50.576Z,5.10
